Time;durP1;ratioP1;P1;durP2;ratioP2;P2;SDS_P1;SDS_P2;PMS_P1;PMS_P2;Temp;Humidity;BMP_temperature;BMP_pressure;BME280_temperature;BME280_humidity;BME280_pressure;Samples;Min_cycle;Max_cycle;Signal;HPM_P1;HPM_P2
2021/03/25 00:01:56;;;;;;;33.07;27.17;;;;;;;8.30;51.02;98387.19;8328908;28;20204;-67
2021/03/25 00:05:58;;;;;;;32.77;27.70;;;;;;;8.15;51.31;98391.91;8329653;28;20204;-67
2021/03/25 00:10:00;;;;;;;33.63;28.47;;;;;;;8.18;51.65;98384.06;8329500;28;20204;-67
2021/03/25 00:14:03;;;;;;;33.27;27.80;;;;;;;8.24;51.37;98380.47;8329638;28;20251;-67
2021/03/25 00:18:07;;;;;;;31.93;26.80;;;;;;;8.11;51.31;98379.09;8329770;28;20312;-67
2021/03/25 00:22:11;;;;;;;30.30;26.33;;;;;;;8.14;51.13;98379.03;8330102;28;20200;-67
2021/03/25 00:26:13;;;;;;;35.93;27.20;;;;;;;8.04;51.50;98370.72;8329621;28;20229;-67
2021/03/25 00:30:19;;;;;;;32.57;27.07;;;;;;;8.01;51.35;98366.50;8329849;28;20189;-67
2021/03/25 00:34:21;;;;;;;30.70;25.90;;;;;;;7.98;51.22;98361.41;8330158;28;20639;-67
2021/03/25 00:38:23;;;;;;;32.93;26.80;;;;;;;7.94;51.08;98361.50;8329081;28;20232;-67
2021/03/25 00:42:25;;;;;;;34.40;26.77;;;;;;;7.91;50.82;98356.47;8329379;28;20207;-67
2021/03/25 00:46:27;;;;;;;30.47;25.50;;;;;;;7.85;51.36;98359.22;8329296;28;20208;-68
2021/03/25 00:50:33;;;;;;;34.13;26.60;;;;;;;7.74;51.39;98354.34;8328973;28;20308;-67
2021/03/25 00:54:34;;;;;;;33.13;25.83;;;;;;;7.82;51.05;98366.16;8327840;28;20221;-67
2021/03/25 00:58:36;;;;;;;30.07;24.70;;;;;;;7.75;50.92;98363.75;8318645;28;20617;-67
2021/03/25 01:02:38;;;;;;;30.00;24.73;;;;;;;7.76;50.76;98360.28;8301008;28;20872;-67
2021/03/25 01:06:41;;;;;;;30.27;24.80;;;;;;;7.78;51.22;98355.94;8296329;28;20211;-68
2021/03/25 01:10:45;;;;;;;31.27;23.67;;;;;;;7.67;52.45;98358.78;8296525;28;20596;-67
2021/03/25 01:14:47;;;;;;;27.67;23.63;;;;;;;7.68;52.10;98352.75;8298057;28;20511;-68
2021/03/25 01:18:49;;;;;;;28.03;24.03;;;;;;;7.63;52.96;98352.91;8297164;28;20221;-67
2021/03/25 01:22:52;;;;;;;36.07;24.63;;;;;;;7.54;52.51;98352.25;8297399;28;20201;-67
2021/03/25 01:26:54;;;;;;;28.70;23.07;;;;;;;7.48;52.10;98355.00;8328257;28;20239;-67
2021/03/25 01:30:56;;;;;;;33.40;24.40;;;;;;;7.47;52.44;98354.16;8328680;28;20205;-68
2021/03/25 01:34:58;;;;;;;28.27;23.67;;;;;;;7.55;52.35;98353.97;8328863;28;20659;-67
2021/03/25 01:39:01;;;;;;;30.97;23.73;;;;;;;7.51;52.25;98357.53;8328054;28;20247;-67
2021/03/25 01:43:10;;;;;;;30.03;23.73;;;;;;;7.56;52.27;98348.78;8327946;28;20204;-67
2021/03/25 01:47:12;;;;;;;29.70;23.30;;;;;;;7.41;53.00;98347.44;8327656;28;20196;-67
2021/03/25 01:51:26;;;;;;;25.90;22.80;;;;;;;7.54;52.21;98336.81;8328284;28;20680;-67
2021/03/25 01:55:39;;;;;;;27.90;22.73;;;;;;;7.43;51.65;98339.69;8327845;28;20200;-67
2021/03/25 02:00:15;;;;;;;31.90;22.37;;;;;;;7.37;51.54;98332.94;8330454;28;20203;-67
2021/03/25 02:04:22;;;;;;;26.90;21.70;;;;;;;7.32;51.23;98324.47;8232507;28;20187;-67
2021/03/25 02:08:34;;;;;;;25.83;21.67;;;;;;;7.32;50.92;98318.50;8281267;28;20212;-67
2021/03/25 02:12:43;;;;;;;26.27;22.40;;;;;;;7.22;51.48;98318.72;8334145;28;20684;-67
2021/03/25 02:16:55;;;;;;;28.87;22.07;;;;;;;7.17;51.45;98307.69;8333274;28;20208;-68
2021/03/25 02:21:19;;;;;;;28.57;23.23;;;;;;;7.18;51.37;98298.25;8334033;28;20185;-67
2021/03/25 02:25:24;;;;;;;27.17;23.03;;;;;;;7.13;51.82;98302.66;8333950;28;20635;-68
2021/03/25 02:29:54;;;;;;;31.77;23.63;;;;;;;7.12;51.58;98290.66;8333201;28;20559;-67
2021/03/25 02:33:59;;;;;;;28.63;23.60;;;;;;;7.09;51.40;98299.31;8333979;28;20208;-67
2021/03/25 02:38:04;;;;;;;27.90;22.50;;;;;;;7.13;51.13;98302.66;8333423;28;20590;-67
2021/03/25 02:42:07;;;;;;;26.63;22.60;;;;;;;7.05;51.11;98297.69;8333678;28;20538;-67
2021/03/25 02:46:13;;;;;;;27.57;22.13;;;;;;;7.02;51.10;98296.03;8333027;28;20224;-67
2021/03/25 02:50:21;;;;;;;27.43;21.77;;;;;;;6.98;52.03;98296.16;8332126;28;20220;-67
2021/03/25 02:54:23;;;;;;;26.03;21.73;;;;;;;6.92;52.61;98289.41;8332367;28;20219;-67
2021/03/25 02:58:25;;;;;;;32.13;21.70;;;;;;;6.93;52.37;98304.00;8332607;28;20664;-67
2021/03/25 03:02:31;;;;;;;25.47;21.73;;;;;;;6.92;52.02;98293.72;8332228;28;20208;-67
2021/03/25 03:06:40;;;;;;;26.93;21.40;;;;;;;6.87;52.12;98295.56;8332264;28;20193;-67
2021/03/25 03:10:45;;;;;;;26.47;21.20;;;;;;;6.99;52.66;98303.84;8330840;28;20229;-67
2021/03/25 03:14:50;;;;;;;22.73;19.23;;;;;;;7.00;53.11;98299.53;8332042;28;20180;-67
2021/03/25 03:18:54;;;;;;;25.17;19.10;;;;;;;6.94;53.34;98300.53;8331758;28;20567;-67
2021/03/25 03:23:02;;;;;;;23.90;18.53;;;;;;;6.77;54.09;98300.09;8332006;28;20195;-67
2021/03/25 03:27:11;;;;;;;24.60;19.27;;;;;;;6.49;55.07;98300.72;8331348;28;20232;-68
2021/03/25 03:31:18;;;;;;;22.50;17.70;;;;;;;6.80;54.30;98305.16;8331471;28;20191;-67
2021/03/25 03:35:23;;;;;;;24.20;18.33;;;;;;;6.95;53.92;98303.94;8331595;28;20643;-68
2021/03/25 03:39:27;;;;;;;21.67;17.70;;;;;;;6.76;54.27;98295.81;8330836;28;20228;-67
2021/03/25 03:43:29;;;;;;;25.60;18.63;;;;;;;6.49;54.98;98293.00;8331241;28;20205;-68
2021/03/25 03:47:33;;;;;;;23.53;17.80;;;;;;;6.60;54.73;98298.75;8330851;28;20207;-67
2021/03/25 03:51:40;;;;;;;25.07;18.47;;;;;;;6.60;54.36;98306.47;8330947;28;20323;-67
2021/03/25 03:55:43;;;;;;;22.03;17.10;;;;;;;6.77;54.42;98308.66;8330857;28;20184;-67
2021/03/25 03:59:48;;;;;;;21.70;16.50;;;;;;;6.75;54.17;98307.00;8330674;28;20282;-67
2021/03/25 04:03:55;;;;;;;19.97;17.43;;;;;;;6.71;53.75;98307.97;8330347;28;20214;-67
2021/03/25 04:08:02;;;;;;;21.47;17.20;;;;;;;6.46;54.29;98304.22;8330866;28;20207;-67
2021/03/25 04:12:09;;;;;;;20.07;15.83;;;;;;;6.74;53.82;98300.16;8330744;28;20500;-67
2021/03/25 04:16:13;;;;;;;21.27;16.83;;;;;;;6.76;53.79;98303.53;8330963;28;20212;-67
2021/03/25 04:20:18;;;;;;;21.67;16.33;;;;;;;6.61;54.16;98302.19;8330549;28;20375;-67
2021/03/25 04:24:22;;;;;;;21.10;16.87;;;;;;;6.63;54.10;98300.41;8329063;28;20237;-67
2021/03/25 04:28:31;;;;;;;21.33;16.47;;;;;;;6.53;54.21;98292.06;8330018;28;20503;-67
2021/03/25 04:32:33;;;;;;;22.03;16.07;;;;;;;6.59;54.62;98301.38;8329332;28;20185;-67
2021/03/25 04:36:38;;;;;;;21.80;16.03;;;;;;;6.58;54.47;98297.09;8329894;28;20220;-67
2021/03/25 04:40:40;;;;;;;22.00;16.50;;;;;;;6.52;54.31;98304.97;8329707;28;20259;-67
2021/03/25 04:44:46;;;;;;;20.70;15.27;;;;;;;6.59;54.28;98303.94;8329505;28;20223;-67
2021/03/25 04:48:49;;;;;;;21.90;16.13;;;;;;;6.57;53.90;98303.13;8329348;28;20213;-67
2021/03/25 04:53:00;;;;;;;26.90;20.20;;;;;;;6.45;54.06;98299.97;8328934;28;20208;-67
2021/03/25 04:57:08;;;;;;;22.50;18.10;;;;;;;5.81;56.26;98299.56;8328086;28;20256;-67
2021/03/25 05:01:15;;;;;;;21.53;15.80;;;;;;;6.23;55.22;98306.44;8329075;28;20193;-67
2021/03/25 05:05:19;;;;;;;20.77;16.63;;;;;;;6.03;55.46;98307.69;8326201;28;20204;-67
2021/03/25 05:09:23;;;;;;;18.97;16.43;;;;;;;6.00;55.48;98299.22;8326201;28;20208;-67
2021/03/25 05:13:27;;;;;;;21.03;16.47;;;;;;;6.05;55.76;98298.25;8326350;28;20208;-68
2021/03/25 05:17:35;;;;;;;20.80;16.03;;;;;;;6.14;55.01;98307.47;8326100;28;20312;-67
2021/03/25 05:21:44;;;;;;;23.37;16.77;;;;;;;5.86;55.86;98310.59;8326030;28;20818;-67
2021/03/25 05:25:49;;;;;;;22.00;15.87;;;;;;;5.99;55.55;98295.78;8325184;28;20246;-67
2021/03/25 05:29:53;;;;;;;20.27;15.73;;;;;;;6.38;54.50;98308.69;8325843;28;20196;-67
2021/03/25 05:34:00;;;;;;;22.10;16.23;;;;;;;6.19;55.00;98315.13;8329815;28;20200;-67
2021/03/25 05:38:03;;;;;;;21.47;16.60;;;;;;;6.26;54.73;98314.06;8333876;28;20236;-68
2021/03/25 05:42:17;;;;;;;21.23;15.47;;;;;;;6.45;54.75;98314.53;8333701;28;20201;-67
2021/03/25 05:46:29;;;;;;;23.83;14.53;;;;;;;6.78;53.69;98318.06;8333651;28;20511;-67
2021/03/25 05:50:37;;;;;;;21.57;15.70;;;;;;;6.92;53.64;98317.75;8327967;28;20207;-68
2021/03/25 05:54:48;;;;;;;21.07;16.17;;;;;;;7.00;52.92;98327.84;8317091;28;20224;-68
2021/03/25 05:58:54;;;;;;;20.60;15.90;;;;;;;7.12;53.08;98334.44;8330225;28;20208;-68
2021/03/25 06:03:00;;;;;;;21.67;17.40;;;;;;;7.27;52.49;98341.78;8334569;28;20234;-68
2021/03/25 06:07:56;;;;;;;24.30;18.27;;;;;;;7.45;51.19;98340.47;8330076;28;20208;-68
2021/03/25 06:12:03;;;;;;;28.00;18.37;;;;;;;7.39;51.56;98344.06;8277337;28;20220;-67
2021/03/25 06:16:35;;;;;;;22.83;16.33;;;;;;;7.55;51.25;98343.66;8301405;28;20313;-67
2021/03/25 06:20:50;;;;;;;21.20;16.20;;;;;;;7.52;51.20;98342.03;8301181;28;20273;-68
2021/03/25 06:25:28;;;;;;;19.57;16.13;;;;;;;7.38;52.07;98344.94;8300142;28;20216;-67
2021/03/25 06:29:34;;;;;;;21.17;16.30;;;;;;;8.19;50.42;98344.47;8312832;28;20225;-67
2021/03/25 06:33:39;;;;;;;19.70;15.63;;;;;;;8.35;50.21;98341.44;8306892;28;20185;-67
2021/03/25 06:37:43;;;;;;;21.13;18.33;;;;;;;8.25;49.92;98346.03;8324834;28;20609;-67
2021/03/25 06:41:49;;;;;;;19.57;16.03;;;;;;;8.68;49.25;98355.13;8332264;28;20235;-67
2021/03/25 06:45:56;;;;;;;22.23;17.67;;;;;;;8.68;49.59;98360.31;8309883;28;20197;-67
2021/03/25 06:49:59;;;;;;;21.97;17.97;;;;;;;9.28;48.45;98360.13;8299557;28;20196;-67
2021/03/25 06:54:09;;;;;;;19.17;17.10;;;;;;;9.42;47.51;98352.75;8300304;28;20205;-67
2021/03/25 06:58:13;;;;;;;22.77;17.93;;;;;;;9.57;46.97;98360.00;8299983;28;20213;-67
2021/03/25 07:02:20;;;;;;;21.50;18.50;;;;;;;8.86;49.42;98358.88;8331123;28;20201;-68
2021/03/25 07:06:24;;;;;;;25.80;18.90;;;;;;;9.11;49.05;98353.78;8333551;28;20192;-67
2021/03/25 07:10:26;;;;;;;20.97;18.17;;;;;;;9.28;47.80;98357.56;8331853;28;20212;-68
2021/03/25 07:14:35;;;;;;;24.73;17.67;;;;;;;9.46;48.92;98356.97;8329607;28;20212;-70
2021/03/25 07:18:47;;;;;;;23.63;18.50;;;;;;;10.05;47.27;98358.38;8316156;28;20625;-67
2021/03/25 07:23:01;;;;;;;23.87;19.47;;;;;;;9.97;47.41;98360.34;8316343;28;20534;-67
2021/03/25 07:27:10;;;;;;;22.70;18.93;;;;;;;9.77;47.97;98355.91;8314532;28;20228;-67
2021/03/25 07:31:12;;;;;;;27.50;18.47;;;;;;;10.14;47.97;98360.59;8313101;28;20196;-67
2021/03/25 07:35:25;;;;;;;25.43;20.23;;;;;;;10.03;47.46;98365.31;8314075;28;20203;-67
2021/03/25 07:39:29;;;;;;;22.93;20.13;;;;;;;9.88;48.71;98368.44;8298610;28;20572;-67
2021/03/25 07:43:48;;;;;;;25.80;19.90;;;;;;;10.47;47.49;98356.84;8303801;28;20216;-67
2021/03/25 07:47:51;;;;;;;25.23;20.40;;;;;;;9.97;48.19;98371.53;8297879;28;20193;-67
2021/03/25 07:51:56;;;;;;;26.63;19.60;;;;;;;10.54;47.87;98371.25;8298405;28;20201;-68
2021/03/25 07:56:06;;;;;;;23.80;20.33;;;;;;;10.82;47.79;98370.22;8314280;28;20193;-67
2021/03/25 08:00:15;;;;;;;28.27;20.70;;;;;;;10.63;48.50;98370.91;8330974;28;20216;-67
2021/03/25 08:04:24;;;;;;;23.13;19.50;;;;;;;10.95;49.15;98371.41;8330968;28;20264;-71
2021/03/25 08:08:30;;;;;;;24.70;19.30;;;;;;;10.83;47.88;98369.28;8330822;28;20204;-71
2021/03/25 08:12:34;;;;;;;24.93;20.23;;;;;;;11.08;47.94;98377.81;8323373;28;20250;-67
2021/03/25 08:16:43;;;;;;;22.87;19.03;;;;;;;11.89;45.61;98376.19;8330084;28;20208;-67
2021/03/25 08:20:51;;;;;;;23.37;18.87;;;;;;;12.42;44.93;98368.72;8330087;28;20188;-67
2021/03/25 08:25:19;;;;;;;27.13;20.37;;;;;;;12.63;44.11;98374.69;8330066;28;20185;-66
2021/03/25 08:29:25;;;;;;;25.33;19.60;;;;;;;13.07;43.32;98375.19;8321539;28;20232;-67
2021/03/25 08:33:37;;;;;;;24.57;19.60;;;;;;;13.85;42.50;98380.06;8330415;28;20189;-67
2021/03/25 08:38:03;;;;;;;28.50;21.40;;;;;;;13.33;42.90;98375.72;8323104;28;20262;-67
2021/03/25 08:42:12;;;;;;;25.80;19.93;;;;;;;14.00;42.68;98370.63;8301166;28;20192;-67
2021/03/25 08:46:18;;;;;;;25.90;20.33;;;;;;;13.75;42.20;98371.06;8330334;28;20192;-67
2021/03/25 08:50:34;;;;;;;26.83;21.73;;;;;;;13.74;42.12;98372.78;8324490;28;20196;-69
2021/03/25 08:54:41;;;;;;;25.73;20.47;;;;;;;14.01;42.18;98369.69;8325622;28;20640;-69
2021/03/25 08:58:44;;;;;;;22.60;18.77;;;;;;;14.68;41.39;98361.84;8329738;28;20677;-68
2021/03/25 09:02:50;;;;;;;27.50;19.80;;;;;;;15.14;40.22;98367.13;8329521;28;20196;-69
2021/03/25 09:06:53;;;;;;;24.63;19.20;;;;;;;15.26;40.23;98353.38;8330199;28;20251;-68
2021/03/25 09:10:57;;;;;;;22.23;19.23;;;;;;;15.64;39.98;98358.97;8334477;28;20230;-69
2021/03/25 09:15:02;;;;;;;23.50;19.20;;;;;;;15.53;40.09;98363.97;8335672;28;20200;-68
2021/03/25 09:19:05;;;;;;;24.73;20.15;;;;;;;16.09;39.11;98361.59;8335410;28;20442;-69
2021/03/25 09:23:51;;;;;;;23.10;19.90;;;;;;;16.46;38.28;98361.94;8335668;28;20616;-70
2021/03/25 09:27:54;;;;;;;25.53;20.43;;;;;;;16.54;37.54;98362.28;8279265;28;20216;-69
2021/03/25 09:32:27;;;;;;;23.27;20.03;;;;;;;16.48;37.84;98359.25;8303839;28;20245;-67
2021/03/25 09:36:51;;;;;;;32.33;20.67;;;;;;;16.81;37.59;98364.09;8322551;28;20196;-68
2021/03/25 09:40:54;;;;;;;25.23;19.33;;;;;;;17.89;36.12;98360.56;8336797;28;20224;-68
2021/03/25 09:44:56;;;;;;;21.47;11.37;;;;;;;18.47;41.05;98362.75;8336016;28;20211;-69
2021/03/25 09:49:31;;;;;;;22.53;14.77;;;;;;;19.16;36.97;98360.44;8335893;28;20292;-69
2021/03/25 09:53:50;;;;;;;21.77;15.87;;;;;;;19.50;35.82;98357.94;8335154;28;20185;-69
2021/03/25 09:57:53;;;;;;;20.30;15.53;;;;;;;19.93;34.22;98357.34;8333801;28;20224;-69
2021/03/25 10:01:56;;;;;;;25.60;17.70;;;;;;;19.82;32.86;98355.56;8314707;28;20221;-68
2021/03/25 10:05:59;;;;;;;19.73;15.07;;;;;;;20.03;33.25;98347.81;8303965;28;20213;-69
2021/03/25 10:10:33;;;;;;;22.70;17.97;;;;;;;19.72;33.41;98341.41;8304603;28;20601;-68
2021/03/25 10:14:48;;;;;;;21.37;16.50;;;;;;;20.18;33.17;98345.78;8302062;28;20257;-68
2021/03/25 10:18:56;;;;;;;23.07;18.00;;;;;;;20.51;31.25;98336.19;8302547;28;20225;-68
2021/03/25 10:22:59;;;;;;;22.27;17.27;;;;;;;20.58;32.29;98333.91;8302553;28;20265;-68
2021/03/25 10:27:16;;;;;;;19.73;16.47;;;;;;;20.66;31.19;98324.50;8301243;28;20238;-69
2021/03/25 10:31:21;;;;;;;22.93;16.37;;;;;;;20.46;31.76;98318.13;8301183;28;20186;-69
2021/03/25 10:35:28;;;;;;;22.20;16.17;;;;;;;20.60;31.60;98318.88;8304303;28;20194;-69
2021/03/25 10:39:35;;;;;;;19.17;14.70;;;;;;;20.84;29.55;98310.81;8332396;28;20237;-69
2021/03/25 10:43:38;;;;;;;19.30;15.63;;;;;;;20.52;28.05;98308.91;8320841;28;20192;-69
2021/03/25 10:47:47;;;;;;;22.77;15.80;;;;;;;20.80;26.40;98307.56;8326213;28;20623;-69
2021/03/25 10:51:51;;;;;;;23.90;18.63;;;;;;;20.64;28.31;98300.09;8321436;28;20213;-70
2021/03/25 10:56:04;;;;;;;21.73;17.63;;;;;;;20.54;28.31;98299.09;8320165;28;20199;-70
2021/03/25 11:00:11;;;;;;;22.37;17.47;;;;;;;19.86;29.46;98291.28;8313312;28;20232;-71
2021/03/25 11:04:18;;;;;;;20.43;17.67;;;;;;;20.28;28.54;98290.69;8301171;28;20196;-70
2021/03/25 11:08:36;;;;;;;20.37;16.93;;;;;;;20.43;28.62;98286.00;8316643;28;20208;-66
2021/03/25 11:12:39;;;;;;;22.90;16.67;;;;;;;19.81;28.01;98279.47;8304648;28;20648;-67
2021/03/25 11:16:48;;;;;;;23.73;17.60;;;;;;;20.16;28.42;98271.44;8308013;28;20208;-67
2021/03/25 11:20:52;;;;;;;20.80;16.53;;;;;;;19.88;27.55;98270.16;8305841;28;20646;-68
2021/03/25 11:24:58;;;;;;;20.50;16.30;;;;;;;20.25;28.08;98262.00;8306422;28;20212;-68
2021/03/25 11:29:01;;;;;;;20.17;17.77;;;;;;;20.28;28.10;98267.00;8323638;28;20319;-66
2021/03/25 11:33:25;;;;;;;20.93;16.03;;;;;;;20.49;27.16;98257.41;8328541;28;20208;-67
2021/03/25 11:37:32;;;;;;;23.27;17.07;;;;;;;20.29;26.27;98261.59;8329536;28;20232;-67
2021/03/25 11:41:38;;;;;;;21.57;16.03;;;;;;;19.84;27.89;98253.78;8329516;28;20215;-68
2021/03/25 11:45:45;;;;;;;20.93;15.80;;;;;;;20.33;27.56;98246.44;8325139;28;20200;-67
2021/03/25 11:49:47;;;;;;;19.27;15.63;;;;;;;20.54;26.79;98243.03;8330549;28;20588;-66
2021/03/25 11:53:50;;;;;;;21.90;14.43;;;;;;;20.60;26.76;98238.16;8328511;28;20219;-66
2021/03/25 11:57:52;;;;;;;19.90;13.40;;;;;;;20.49;26.48;98246.06;8310792;28;20218;-66
2021/03/25 12:02:31;;;;;;;25.80;12.27;;;;;;;21.11;26.06;98239.25;8318649;28;20271;-67
2021/03/25 12:06:39;;;;;;;16.23;12.23;;;;;;;21.14;25.48;98230.28;8221614;28;20652;-67
2021/03/25 12:10:42;;;;;;;25.17;13.07;;;;;;;21.38;25.29;98227.34;8280781;28;20631;-68
2021/03/25 12:14:45;;;;;;;16.00;10.07;;;;;;;21.36;24.75;98224.00;8321592;28;20193;-67
2021/03/25 12:18:48;;;;;;;18.40;10.57;;;;;;;20.71;26.17;98218.84;8319465;28;20256;-67
2021/03/25 12:22:51;;;;;;;17.33;10.47;;;;;;;21.24;24.38;98210.09;8318643;28;20200;-67
2021/03/25 12:27:16;;;;;;;16.17;10.00;;;;;;;21.08;24.24;98214.00;8325491;28;20303;-67
2021/03/25 12:31:18;;;;;;;13.57;9.33;;;;;;;20.91;25.18;98206.69;8309662;28;20247;-67
2021/03/25 12:35:41;;;;;;;11.40;7.60;;;;;;;20.43;24.25;98202.66;8298549;28;20192;-68
2021/03/25 12:39:44;;;;;;;10.43;7.40;;;;;;;20.53;23.51;98202.75;8302403;28;20225;-67
2021/03/25 12:43:46;;;;;;;10.33;7.20;;;;;;;20.86;24.79;98203.59;8312523;28;20196;-67
2021/03/25 12:47:48;;;;;;;15.13;7.43;;;;;;;20.77;23.89;98192.03;8314534;28;20493;-68
2021/03/25 12:51:51;;;;;;;11.50;7.13;;;;;;;20.99;24.28;98188.44;8312113;28;20184;-68
2021/03/25 12:55:53;;;;;;;10.97;7.77;;;;;;;20.95;24.09;98183.56;8317346;28;20240;-69
2021/03/25 12:59:58;;;;;;;10.60;7.50;;;;;;;20.73;24.61;98174.81;8310887;28;20213;-68
2021/03/25 13:04:01;;;;;;;13.73;7.13;;;;;;;21.03;24.13;98174.06;8314240;28;20189;-68
2021/03/25 13:08:05;;;;;;;12.13;7.03;;;;;;;20.99;24.87;98171.81;8317094;28;20258;-68
2021/03/25 13:12:09;;;;;;;14.50;9.50;;;;;;;20.91;25.39;98166.38;8314005;28;20188;-67
2021/03/25 13:16:11;;;;;;;15.10;8.30;;;;;;;20.92;25.46;98155.69;8315413;28;20213;-67
2021/03/25 13:20:14;;;;;;;15.93;7.77;;;;;;;20.91;26.22;98154.03;8311522;28;20213;-67
2021/03/25 13:24:17;;;;;;;12.20;8.30;;;;;;;20.88;26.63;98149.03;8315344;28;20193;-66
2021/03/25 13:28:21;;;;;;;12.43;8.00;;;;;;;20.89;25.51;98148.91;8315724;28;20248;-68
2021/03/25 13:32:23;;;;;;;13.33;7.50;;;;;;;20.40;27.33;98152.09;8311728;28;20200;-67
2021/03/25 13:36:25;;;;;;;11.83;8.00;;;;;;;20.66;25.59;98142.94;8309720;28;20201;-67
2021/03/25 13:40:31;;;;;;;11.03;7.37;;;;;;;20.70;25.58;98133.81;8306782;28;20232;-66
2021/03/25 13:44:33;;;;;;;12.03;8.00;;;;;;;20.44;24.81;98137.72;8314094;28;20198;-66
2021/03/25 13:48:34;;;;;;;15.60;7.40;;;;;;;20.81;26.23;98143.47;8312157;28;20216;-67
2021/03/25 13:52:37;;;;;;;11.67;7.23;;;;;;;21.11;24.79;98141.81;8311433;28;20276;-67
2021/03/25 13:56:50;;;;;;;9.20;6.50;;;;;;;21.07;24.08;98128.06;8313817;28;20534;-66
2021/03/25 14:00:53;;;;;;;14.13;7.77;;;;;;;21.04;24.31;98130.97;8303326;28;20569;-67
2021/03/25 14:04:55;;;;;;;11.70;7.77;;;;;;;21.00;24.94;98132.22;8334722;28;20544;-67
2021/03/25 14:08:57;;;;;;;14.37;7.90;;;;;;;21.23;24.71;98126.78;8335474;28;20570;-66
2021/03/25 14:13:01;;;;;;;8.37;6.00;;;;;;;20.92;25.15;98136.44;8304644;28;20195;-67
2021/03/25 14:17:03;;;;;;;10.80;7.43;;;;;;;20.87;24.74;98136.84;8301712;28;20237;-66
2021/03/25 14:21:06;;;;;;;12.07;7.40;;;;;;;20.99;25.99;98127.91;8302631;28;20225;-68
2021/03/25 14:25:11;;;;;;;13.33;7.70;;;;;;;20.85;25.57;98134.34;8303336;28;20517;-67
2021/03/25 14:29:14;;;;;;;11.37;7.87;;;;;;;20.33;25.94;98135.97;8318442;28;20232;-66
2021/03/25 14:33:17;;;;;;;17.00;7.20;;;;;;;20.34;26.49;98132.41;8335139;28;20196;-67
2021/03/25 14:37:19;;;;;;;8.63;6.40;;;;;;;20.54;25.42;98137.81;8335065;28;20228;-67
2021/03/25 14:41:22;;;;;;;10.30;6.23;;;;;;;20.19;26.37;98125.75;8333136;28;20621;-66
2021/03/25 14:45:27;;;;;;;11.43;6.33;;;;;;;20.15;27.34;98138.31;8333997;28;20208;-67
2021/03/25 14:49:29;;;;;;;11.40;7.43;;;;;;;20.04;27.78;98133.09;8333464;28;20200;-67
2021/03/25 14:53:31;;;;;;;17.57;8.03;;;;;;;20.11;27.62;98131.66;8334272;28;20204;-66
2021/03/25 14:57:33;;;;;;;13.27;7.20;;;;;;;19.81;28.02;98124.41;8324150;28;20225;-66
2021/03/25 15:01:36;;;;;;;12.00;8.43;;;;;;;20.01;26.88;98128.06;8325129;28;20846;-66
2021/03/25 15:05:39;;;;;;;10.73;6.17;;;;;;;19.87;27.96;98119.50;8332457;28;20283;-66
2021/03/25 15:09:41;;;;;;;11.90;6.80;;;;;;;19.61;29.26;98123.31;8330987;28;20211;-67
2021/03/25 15:13:43;;;;;;;10.30;7.03;;;;;;;20.07;27.15;98127.59;8329712;28;20525;-66
2021/03/25 15:17:46;;;;;;;9.27;7.23;;;;;;;19.34;27.92;98116.66;8328472;28;20250;-67
2021/03/25 15:21:48;;;;;;;12.37;7.00;;;;;;;19.14;28.30;98119.03;8332148;28;20273;-69
2021/03/25 15:25:50;;;;;;;11.17;7.07;;;;;;;19.15;27.69;98119.88;8332250;28;20211;-67
2021/03/25 15:29:52;;;;;;;9.10;6.93;;;;;;;19.03;27.92;98123.44;8332278;28;20199;-67
2021/03/25 15:33:54;;;;;;;8.83;6.27;;;;;;;19.11;28.18;98118.44;8301924;28;20193;-67
2021/03/25 15:37:57;;;;;;;9.00;6.40;;;;;;;19.21;28.15;98116.78;8298858;28;20224;-68
2021/03/25 15:41:59;;;;;;;9.60;6.17;;;;;;;19.10;28.04;98127.28;8299152;28;20197;-67
2021/03/25 15:46:01;;;;;;;11.53;6.03;;;;;;;19.04;28.54;98122.47;8322224;28;20240;-67
2021/03/25 15:50:05;;;;;;;10.30;5.63;;;;;;;18.83;28.30;98119.72;8330556;28;20201;-67
2021/03/25 15:54:10;;;;;;;7.70;5.07;;;;;;;18.81;28.74;98124.25;8330113;28;20667;-67
2021/03/25 15:58:13;;;;;;;8.07;5.97;;;;;;;18.56;28.66;98128.66;8330138;28;20228;-67
2021/03/25 16:02:15;;;;;;;9.10;5.83;;;;;;;18.47;28.88;98124.13;8330562;28;20201;-66
2021/03/25 16:06:18;;;;;;;10.50;6.17;;;;;;;18.25;28.99;98120.44;8330775;28;20192;-66
2021/03/25 16:10:21;;;;;;;8.87;6.37;;;;;;;18.34;29.07;98122.41;8306482;28;20205;-67
2021/03/25 16:14:23;;;;;;;9.17;6.37;;;;;;;18.23;29.20;98122.34;8297836;28;20255;-67
2021/03/25 16:18:26;;;;;;;9.30;6.33;;;;;;;18.16;30.38;98128.97;8297444;28;20248;-67
2021/03/25 16:22:29;;;;;;;10.47;6.10;;;;;;;18.06;30.18;98126.19;8297439;28;20610;-66
2021/03/25 16:26:31;;;;;;;12.03;7.80;;;;;;;18.02;29.71;98122.13;8296825;28;20236;-67
2021/03/25 16:30:34;;;;;;;9.70;7.03;;;;;;;17.92;30.16;98127.19;8297376;28;20640;-66
2021/03/25 16:34:37;;;;;;;11.60;7.20;;;;;;;17.84;30.77;98137.41;8302805;28;20196;-67
2021/03/25 16:38:40;;;;;;;10.17;6.87;;;;;;;17.82;30.67;98130.53;8297102;28;20281;-67
2021/03/25 16:42:44;;;;;;;9.97;6.63;;;;;;;17.79;30.66;98129.00;8297481;28;20193;-67
2021/03/25 16:46:46;;;;;;;10.37;6.43;;;;;;;17.79;30.83;98136.84;8297462;28;20212;-67
2021/03/25 16:50:49;;;;;;;11.27;7.10;;;;;;;17.69;30.90;98135.84;8297324;28;20265;-67
2021/03/25 16:55:00;;;;;;;14.43;6.60;;;;;;;17.51;30.68;98141.41;8297471;28;20189;-67
2021/03/25 16:59:02;;;;;;;11.53;7.23;;;;;;;17.45;31.31;98147.06;8315667;28;20220;-66
2021/03/25 17:03:07;;;;;;;11.97;6.27;;;;;;;17.37;31.32;98145.00;8329293;28;20199;-66
2021/03/25 17:07:10;;;;;;;11.70;7.30;;;;;;;17.22;31.68;98147.84;8296893;28;20699;-67
2021/03/25 17:11:14;;;;;;;15.17;11.13;;;;;;;16.96;31.81;98146.06;8297158;28;20204;-66
2021/03/25 17:15:18;;;;;;;13.60;8.00;;;;;;;16.99;31.60;98145.84;8296347;28;20208;-67
2021/03/25 17:19:19;;;;;;;14.50;8.13;;;;;;;16.97;31.78;98147.72;8320288;28;20232;-67
2021/03/25 17:23:24;;;;;;;12.07;7.57;;;;;;;16.92;31.96;98156.81;8329630;28;20208;-67
2021/03/25 17:27:27;;;;;;;11.23;6.83;;;;;;;16.81;32.27;98160.97;8329684;28;20239;-67
2021/03/25 17:31:29;;;;;;;11.47;7.30;;;;;;;16.69;32.04;98171.41;8302383;28;20584;-67
2021/03/25 17:35:31;;;;;;;10.47;6.60;;;;;;;16.70;32.46;98168.69;8303701;28;20205;-67
2021/03/25 17:39:33;;;;;;;18.70;12.63;;;;;;;16.58;32.68;98172.94;8303643;28;20235;-67
2021/03/25 17:43:36;;;;;;;18.03;10.90;;;;;;;16.51;32.75;98174.28;8328480;28;20200;-67
2021/03/25 17:47:40;;;;;;;10.57;7.70;;;;;;;16.46;33.16;98172.91;8334845;28;20347;-68
2021/03/25 17:51:42;;;;;;;10.47;6.63;;;;;;;16.37;33.23;98175.19;8334611;28;20212;-67
2021/03/25 17:55:46;;;;;;;11.43;7.03;;;;;;;16.31;33.79;98170.34;8336751;28;20569;-67
2021/03/25 17:59:49;;;;;;;14.27;7.20;;;;;;;16.20;34.28;98178.88;8334637;28;20228;-67
2021/03/25 18:03:50;;;;;;;15.45;8.30;;;;;;;16.65;33.32;98185.63;8334663;28;20419;-66
2021/03/25 18:07:53;;;;;;;26.87;7.20;;;;;;;16.10;34.46;98182.16;8335050;28;20250;-67
2021/03/25 18:11:55;;;;;;;10.27;6.50;;;;;;;16.03;34.82;98198.25;8335546;28;20203;-67
2021/03/25 18:16:00;;;;;;;15.97;7.40;;;;;;;16.00;35.15;98200.19;8335456;28;20548;-67
2021/03/25 18:20:04;;;;;;;13.67;7.80;;;;;;;15.87;36.02;98202.72;8334689;28;20258;-66
2021/03/25 18:24:10;;;;;;;13.07;8.00;;;;;;;15.85;35.99;98199.38;8334797;28;20185;-67
2021/03/25 18:28:14;;;;;;;12.90;8.80;;;;;;;15.76;36.48;98199.94;8334867;28;20239;-67
2021/03/25 18:32:16;;;;;;;13.73;8.40;;;;;;;15.69;36.39;98206.44;8335275;28;20200;-66
2021/03/25 18:36:21;;;;;;;20.20;11.57;;;;;;;15.66;36.50;98211.88;8334709;28;20208;-67
2021/03/25 18:40:23;;;;;;;14.00;9.67;;;;;;;15.62;36.35;98213.81;8334512;28;20227;-66
2021/03/25 18:44:25;;;;;;;26.03;19.93;;;;;;;15.42;37.53;98220.22;8334137;28;20255;-66
2021/03/25 18:48:29;;;;;;;41.13;28.67;;;;;;;15.36;37.64;98221.44;8335304;28;20200;-66
2021/03/25 18:52:31;;;;;;;43.63;32.40;;;;;;;15.36;37.73;98220.59;8335413;28;20193;-66
2021/03/25 18:56:33;;;;;;;45.80;34.23;;;;;;;15.28;37.66;98223.66;8334637;28;20284;-66
2021/03/25 19:00:39;;;;;;;69.90;50.70;;;;;;;15.21;37.68;98227.56;8334141;28;20231;-67
2021/03/25 19:04:42;;;;;;;74.47;49.80;;;;;;;15.15;37.44;98230.53;8304555;28;20217;-68